Time;durP1;ratioP1;P1;durP2;ratioP2;P2;SDS_P1;SDS_P2;PMS_P1;PMS_P2;Temp;Humidity;BMP_temperature;BMP_pressure;BME280_temperature;BME280_humidity;BME280_pressure;Samples;Min_cycle;Max_cycle;Signal;HPM_P1;HPM_P2
2021/11/01 00:01:46;;;;;;;13.57;3.42;;;;;21.30;100618.00;;;;5109543;28;20051;-77
2021/11/01 00:04:17;;;;;;;13.40;3.22;;;;;21.30;100627.00;;;;5110270;28;20046;-77
2021/11/01 00:06:46;;;;;;;12.68;3.70;;;;;21.30;100619.00;;;;5109927;28;20039;-77
2021/11/01 00:09:16;;;;;;;9.60;3.30;;;;;21.30;100618.00;;;;5109495;28;20048;-77
2021/11/01 00:11:46;;;;;;;14.40;3.50;;;;;21.50;100613.00;;;;5109560;28;20043;-77
2021/11/01 00:14:16;;;;;;;15.20;4.13;;;;;21.40;100615.00;;;;5109411;28;20101;-78
2021/11/01 00:16:45;;;;;;;13.50;3.67;;;;;21.50;100613.00;;;;5074784;28;20434;-77
2021/11/01 00:19:15;;;;;;;11.93;3.75;;;;;21.50;100617.00;;;;5108864;28;20044;-77
2021/11/01 00:21:44;;;;;;;10.88;3.95;;;;;21.50;100617.00;;;;5109233;28;20745;-77
2021/11/01 00:24:14;;;;;;;12.32;3.88;;;;;21.40;100629.00;;;;5109341;28;20047;-77
2021/11/01 00:26:43;;;;;;;14.43;3.90;;;;;21.40;100630.00;;;;5109630;28;20046;-77
2021/11/01 00:29:13;;;;;;;13.20;3.90;;;;;21.20;100638.00;;;;5109941;28;20048;-76
2021/11/01 00:31:42;;;;;;;11.50;3.80;;;;;21.20;100648.00;;;;5109457;28;20040;-77
2021/11/01 00:34:12;;;;;;;19.38;4.25;;;;;21.40;100640.00;;;;5107846;28;20513;-77
2021/11/01 00:36:41;;;;;;;14.45;4.78;;;;;21.50;100630.00;;;;5108856;28;20050;-77
2021/11/01 00:39:11;;;;;;;12.77;3.88;;;;;21.40;100641.00;;;;5108731;28;20704;-77
2021/11/01 00:41:40;;;;;;;11.90;3.80;;;;;21.30;100655.00;;;;5108812;28;20089;-77
2021/11/01 00:44:10;;;;;;;11.13;4.45;;;;;21.10;100651.00;;;;5109221;28;20051;-77
2021/11/01 00:46:40;;;;;;;14.07;4.68;;;;;21.10;100655.00;;;;5108477;28;20050;-77
2021/11/01 00:49:10;;;;;;;14.50;4.05;;;;;21.10;100652.00;;;;5109504;28;20040;-77
2021/11/01 00:51:41;;;;;;;11.80;4.25;;;;;21.00;100655.00;;;;5109144;28;20048;-77
2021/11/01 00:54:12;;;;;;;13.93;4.88;;;;;21.00;100669.00;;;;5109019;28;20131;-77
2021/11/01 00:56:42;;;;;;;11.40;4.55;;;;;20.90;100677.00;;;;5109275;28;20047;-77
2021/11/01 00:59:11;;;;;;;14.50;4.40;;;;;20.90;100676.00;;;;5108468;28;20417;-77
2021/11/01 01:01:41;;;;;;;9.82;4.20;;;;;20.80;100678.00;;;;5108964;28;20047;-77
2021/11/01 01:04:11;;;;;;;11.98;4.65;;;;;20.70;100676.00;;;;5106913;28;20051;-77
2021/11/01 01:06:41;;;;;;;11.43;4.68;;;;;20.60;100656.00;;;;5106268;28;20495;-76
2021/11/01 01:09:11;;;;;;;12.75;4.95;;;;;20.50;100656.00;;;;5089047;28;20071;-77
2021/11/01 01:11:40;;;;;;;11.30;4.78;;;;;20.50;100658.00;;;;5108718;28;20430;-77
2021/11/01 01:14:10;;;;;;;14.40;5.53;;;;;20.40;100661.00;;;;5108136;28;20039;-77
2021/11/01 01:16:43;;;;;;;12.93;5.30;;;;;20.40;100643.00;;;;5108029;28;20044;-77
2021/11/01 01:19:19;;;;;;;11.95;5.22;;;;;20.60;100652.00;;;;5108650;28;20047;-77
2021/11/01 01:24:37;;;;;;;10.57;5.40;;;;;20.60;100655.00;;;;5108549;28;20540;-77
2021/11/01 01:27:06;;;;;;;9.02;5.05;;;;;20.90;100634.00;;;;5108455;28;20510;-77
2021/11/01 01:29:36;;;;;;;17.38;5.53;;;;;20.90;100633.00;;;;5108376;28;20123;-77
2021/11/01 01:32:06;;;;;;;15.48;6.75;;;;;20.80;100646.00;;;;5107988;28;20055;-77
2021/11/01 01:34:36;;;;;;;14.95;5.55;;;;;20.80;100635.00;;;;5108071;28;20069;-77
2021/11/01 01:37:05;;;;;;;15.45;5.60;;;;;20.80;100644.00;;;;5108421;28;20047;-77
2021/11/01 01:39:35;;;;;;;15.18;6.30;;;;;20.80;100637.00;;;;5108827;28;20040;-76
2021/11/01 01:42:05;;;;;;;13.07;5.05;;;;;20.70;100633.00;;;;5108210;28;20052;-76
2021/11/01 01:44:37;;;;;;;20.35;6.38;;;;;21.00;100634.00;;;;5107352;28;20044;-77
2021/11/01 01:47:09;;;;;;;17.33;6.10;;;;;21.00;100630.00;;;;5107935;28;20071;-77
2021/11/01 01:49:39;;;;;;;10.95;5.90;;;;;21.20;100630.00;;;;5107636;28;20122;-76
2021/11/01 01:52:09;;;;;;;15.25;6.80;;;;;21.40;100628.00;;;;5090064;28;20112;-77
2021/11/01 01:54:39;;;;;;;12.00;5.78;;;;;21.10;100627.00;;;;5089594;28;20073;-77
2021/11/01 01:57:09;;;;;;;21.27;6.55;;;;;21.00;100616.00;;;;5107522;28;20043;-76
2021/11/01 01:59:39;;;;;;;19.23;6.55;;;;;21.10;100622.00;;;;5107751;28;20404;-76
2021/11/01 02:02:08;;;;;;;16.02;6.75;;;;;21.10;100626.00;;;;5108161;28;20052;-76
2021/11/01 02:04:38;;;;;;;13.77;6.25;;;;;21.20;100622.00;;;;5107590;28;20735;-77
2021/11/01 02:07:23;;;;;;;15.82;7.18;;;;;21.00;100634.00;;;;5107713;28;20130;-77
2021/11/01 02:10:12;;;;;;;15.15;7.40;;;;;20.90;100640.00;;;;5107625;28;20052;-77
2021/11/01 02:12:43;;;;;;;13.40;6.32;;;;;20.90;100635.00;;;;5107596;28;20043;-77
2021/11/01 02:15:16;;;;;;;10.00;6.40;;;;;20.80;100635.00;;;;5107034;28;20074;-76
2021/11/01 02:17:49;;;;;;;13.25;6.97;;;;;20.60;100636.00;;;;5107426;28;20480;-76
2021/11/01 02:20:48;;;;;;;12.50;6.47;;;;;20.50;100644.00;;;;5089393;28;20055;-76
2021/11/01 02:23:40;;;;;;;18.08;7.38;;;;;20.40;100647.00;;;;5107370;28;20039;-77
2021/11/01 02:26:13;;;;;;;23.00;7.80;;;;;20.20;100640.00;;;;5107979;28;20040;-76
2021/11/01 02:28:45;;;;;;;13.68;6.93;;;;;20.00;100644.00;;;;5107447;28;20039;-76
2021/11/01 02:31:17;;;;;;;16.42;7.43;;;;;19.80;100638.00;;;;5107523;28;20256;-77
2021/11/01 02:33:49;;;;;;;11.57;7.15;;;;;19.60;100655.00;;;;5106647;28;20413;-77
2021/11/01 02:36:19;;;;;;;13.35;7.70;;;;;19.50;100638.00;;;;5107469;28;20044;-77
2021/11/01 02:38:57;;;;;;;14.75;8.27;;;;;19.50;100628.00;;;;5106758;28;20040;-77
2021/11/01 02:41:33;;;;;;;15.75;7.72;;;;;19.40;100646.00;;;;5107374;28;20044;-77
2021/11/01 02:44:05;;;;;;;14.05;7.47;;;;;19.30;100653.00;;;;5107615;28;20048;-76
2021/11/01 02:46:38;;;;;;;13.48;8.18;;;;;19.20;100646.00;;;;5107135;28;20040;-77
2021/11/01 02:49:08;;;;;;;11.25;7.75;;;;;19.20;100635.00;;;;5107450;28;20071;-76
2021/11/01 02:51:40;;;;;;;11.27;8.05;;;;;19.10;100644.00;;;;5107867;28;20040;-76
2021/11/01 02:54:11;;;;;;;11.68;8.50;;;;;19.00;100642.00;;;;5107157;28;20043;-77
2021/11/01 02:56:43;;;;;;;15.48;8.65;;;;;19.00;100639.00;;;;5108421;28;20051;-77
2021/11/01 02:59:12;;;;;;;18.02;10.10;;;;;19.00;100635.00;;;;5092862;28;20170;-77
2021/11/01 03:01:42;;;;;;;13.25;9.27;;;;;18.90;100645.00;;;;5111270;28;20073;-77
2021/11/01 03:04:11;;;;;;;16.30;8.77;;;;;18.90;100629.00;;;;5092983;28;20047;-77
2021/11/01 03:06:41;;;;;;;13.98;8.68;;;;;18.90;100644.00;;;;5111139;28;20130;-77
2021/11/01 03:09:11;;;;;;;18.08;9.43;;;;;18.80;100630.00;;;;5110895;28;20098;-77
2021/11/01 03:11:40;;;;;;;15.38;9.45;;;;;18.80;100633.00;;;;5110834;28;20051;-77
2021/11/01 03:14:13;;;;;;;11.60;8.77;;;;;18.70;100622.00;;;;5111049;28;20544;-76
2021/11/01 03:16:47;;;;;;;14.23;8.93;;;;;18.70;100623.00;;;;5111301;28;20035;-76
2021/11/01 03:19:21;;;;;;;15.50;9.68;;;;;18.70;100626.00;;;;5111379;28;20031;-76
2021/11/01 03:21:53;;;;;;;18.88;9.10;;;;;18.60;100618.00;;;;5110483;28;20047;-76
2021/11/01 03:24:23;;;;;;;17.98;10.40;;;;;18.60;100614.00;;;;5110290;28;20533;-76
2021/11/01 03:26:54;;;;;;;17.85;10.18;;;;;18.50;100599.00;;;;5110782;28;20044;-76
2021/11/01 03:29:24;;;;;;;;;;;;;18.50;100604.00;;;;5111129;28;20040;-76
2021/11/01 03:31:54;;;;;;;15.45;9.27;;;;;18.50;100589.00;;;;5093237;28;20420;-76
2021/11/01 03:34:24;;;;;;;18.33;9.75;;;;;18.50;100590.00;;;;5110308;28;20047;-76
2021/11/01 03:36:57;;;;;;;14.38;9.65;;;;;18.50;100593.00;;;;5110621;28;20142;-76
2021/11/01 03:39:27;;;;;;;18.02;9.15;;;;;18.50;100595.00;;;;5092670;28;20046;-76
2021/11/01 03:41:58;;;;;;;17.45;9.52;;;;;18.40;100593.00;;;;5110643;28;20048;-76
2021/11/01 03:44:32;;;;;;;16.05;9.82;;;;;18.40;100595.00;;;;5110347;28;20044;-76
2021/11/01 03:47:05;;;;;;;14.65;9.82;;;;;18.30;100596.00;;;;5110309;28;20072;-76
2021/11/01 03:49:38;;;;;;;17.85;10.38;;;;;18.30;100581.00;;;;5110334;28;20491;-76
2021/11/01 03:52:16;;;;;;;17.42;9.90;;;;;18.30;100580.00;;;;5110324;28;20039;-76
2021/11/01 03:54:47;;;;;;;11.65;9.85;;;;;18.30;100588.00;;;;5110043;28;20152;-76
2021/11/01 03:57:17;;;;;;;17.80;11.48;;;;;18.30;100581.00;;;;5110218;28;20043;-76
2021/11/01 03:59:47;;;;;;;18.42;10.88;;;;;18.20;100582.00;;;;5092143;28;20516;-76
2021/11/01 04:02:20;;;;;;;17.70;10.90;;;;;18.20;100570.00;;;;5110527;28;20540;-76
2021/11/01 04:04:52;;;;;;;20.08;11.35;;;;;18.20;100567.00;;;;5109871;28;20414;-76
2021/11/01 04:07:22;;;;;;;21.17;11.43;;;;;18.20;100554.00;;;;5109572;28;20040;-76
2021/11/01 04:09:52;;;;;;;17.30;11.20;;;;;18.20;100553.00;;;;5110234;28;20051;-76
2021/11/01 04:12:21;;;;;;;18.88;10.77;;;;;18.20;100545.00;;;;5109852;28;20417;-76
2021/11/01 04:14:56;;;;;;;16.88;11.15;;;;;18.20;100561.00;;;;5109736;28;20059;-76
2021/11/01 04:17:38;;;;;;;15.68;10.63;;;;;18.20;100538.00;;;;5109649;28;20791;-76
2021/11/01 04:20:24;;;;;;;20.63;12.00;;;;;18.20;100548.00;;;;5109701;28;20059;-76
2021/11/01 04:23:11;;;;;;;16.52;10.77;;;;;18.20;100537.00;;;;5109522;28;20054;-76
2021/11/01 04:25:40;;;;;;;19.48;11.18;;;;;18.10;100531.00;;;;5110057;28;20096;-76
2021/11/01 04:28:10;;;;;;;12.63;10.75;;;;;18.00;100550.00;;;;5092483;28;20079;-76
2021/11/01 04:30:42;;;;;;;24.88;11.63;;;;;18.00;100547.00;;;;5109293;28;20043;-76
2021/11/01 04:33:17;;;;;;;16.55;11.65;;;;;17.90;100538.00;;;;5109188;28;20044;-76
2021/11/01 04:35:47;;;;;;;19.52;12.13;;;;;18.00;100546.00;;;;5109345;28;20058;-77
2021/11/01 04:41:21;;;;;;;18.88;12.43;;;;;17.90;100539.00;;;;5109480;28;20128;-76
2021/11/01 04:54:47;;;;;;;15.10;11.48;;;;;17.70;100527.00;;;;5109017;28;20065;-76
2021/11/01 04:57:20;;;;;;;20.08;12.32;;;;;17.70;100540.00;;;;5108882;28;20035;-76
2021/11/01 04:59:50;;;;;;;14.07;12.02;;;;;17.80;100534.00;;;;5108721;28;20506;-76
2021/11/01 05:02:20;;;;;;;16.60;12.20;;;;;17.70;100541.00;;;;5108838;28;20039;-77
2021/11/01 05:04:52;;;;;;;18.10;12.05;;;;;17.70;100540.00;;;;5108763;28;20066;-77
2021/11/01 05:07:23;;;;;;;18.10;12.05;;;;;17.70;100537.00;;;;5090529;28;20402;-77
2021/11/01 05:12:41;;;;;;;18.38;11.23;;;;;17.70;100531.00;;;;5090561;28;19923;-77
2021/11/01 05:15:23;;;;;;;11.82;10.70;;;;;17.70;100521.00;;;;5108886;28;20084;-77
2021/11/01 05:18:04;;;;;;;16.17;11.45;;;;;17.70;100525.00;;;;5108562;28;20043;-78
2021/11/01 05:20:41;;;;;;;13.52;11.80;;;;;17.60;100521.00;;;;5107922;28;20043;-78
2021/11/01 05:23:27;;;;;;;14.65;11.43;;;;;17.60;100519.00;;;;5108522;28;20047;-76
2021/11/01 05:26:03;;;;;;;14.38;12.25;;;;;17.50;100524.00;;;;5090541;28;20051;-76
2021/11/01 05:31:20;;;;;;;14.52;11.25;;;;;17.50;100520.00;;;;5108306;28;20490;-76
2021/11/01 05:33:54;;;;;;;18.38;11.32;;;;;17.50;100513.00;;;;5107798;28;20047;-76
2021/11/01 05:36:24;;;;;;;17.10;11.68;;;;;17.50;100505.00;;;;5108334;28;20083;-76
2021/11/01 05:38:53;;;;;;;18.15;11.43;;;;;17.50;100523.00;;;;5108554;28;20038;-79
2021/11/01 05:41:24;;;;;;;14.63;11.35;;;;;17.50;100541.00;;;;5108151;28;20035;-76
2021/11/01 05:43:53;;;;;;;16.15;12.57;;;;;17.50;100531.00;;;;5108174;28;20040;-76
2021/11/01 05:46:23;;;;;;;15.02;12.23;;;;;17.50;100524.00;;;;5107401;28;20430;-76
2021/11/01 05:48:54;;;;;;;22.33;12.37;;;;;17.50;100531.00;;;;5108043;28;20043;-76
2021/11/01 05:51:23;;;;;;;15.38;11.70;;;;;17.50;100524.00;;;;5108047;28;20047;-76
2021/11/01 05:53:59;;;;;;;24.08;11.90;;;;;17.50;100526.00;;;;5089422;28;20685;-75
2021/11/01 06:02:15;;;;;;;15.15;11.65;;;;;17.40;100518.00;;;;5107939;28;20043;-76
2021/11/01 06:05:05;;;;;;;16.83;11.40;;;;;17.40;100537.00;;;;5089598;28;20048;-76
2021/11/01 06:07:47;;;;;;;16.25;11.68;;;;;17.40;100540.00;;;;5107360;28;20058;-76
2021/11/01 06:15:35;;;;;;;16.13;11.63;;;;;17.50;100528.00;;;;5107607;28;20047;-75
2021/11/01 06:18:04;;;;;;;19.08;11.80;;;;;17.50;100538.00;;;;5107828;28;20043;-76
2021/11/01 06:20:34;;;;;;;15.77;11.73;;;;;17.40;100538.00;;;;5107034;28;20054;-75
2021/11/01 06:23:04;;;;;;;16.08;11.32;;;;;17.40;100536.00;;;;5107401;28;20044;-75
2021/11/01 06:25:34;;;;;;;15.82;11.63;;;;;17.30;100534.00;;;;5106965;28;20047;-76
2021/11/01 06:28:03;;;;;;;18.23;10.98;;;;;17.30;100530.00;;;;5107372;28;20067;-75
2021/11/01 06:30:38;;;;;;;12.50;10.98;;;;;17.30;100549.00;;;;5106763;28;20045;-76
2021/11/01 06:49:46;;;;;;;13.80;10.95;;;;;17.20;100566.00;;;;5106804;28;20035;-76
2021/11/01 07:14:28;;;;;;;14.38;11.07;;;;;17.10;100579.00;;;;5107611;28;20388;-76
2021/11/01 07:22:25;;;;;;;16.45;11.98;;;;;17.10;100577.00;;;;5106863;28;20396;-76
2021/11/01 08:17:27;;;;;;;19.60;11.85;;;;;16.80;100604.00;;;;5106588;28;20050;-75
2021/11/01 08:29:11;;;;;;;23.95;12.90;;;;;16.40;100621.00;;;;5109422;28;20108;-76
2021/11/01 08:35:06;;;;;;;16.58;12.77;;;;;16.50;100633.00;;;;5109769;28;20553;-76
2021/11/01 08:40:08;;;;;;;22.08;12.98;;;;;16.50;100632.00;;;;5109193;28;20058;-76
2021/11/01 08:45:47;;;;;;;20.30;13.65;;;;;16.60;100641.00;;;;5109030;28;20064;-77
2021/11/01 09:26:47;;;;;;;24.70;12.75;;;;;17.30;100680.00;;;;5108182;28;20082;-77
2021/11/01 09:37:41;;;;;;;28.70;13.25;;;;;18.20;100694.00;;;;5108099;28;20043;-76
2021/11/01 09:42:59;;;;;;;20.98;12.50;;;;;18.30;100677.00;;;;5107858;28;20457;-76
2021/11/01 09:45:32;;;;;;;14.60;10.95;;;;;19.30;100619.00;;;;5107969;28;20055;-76
2021/11/01 09:48:03;;;;;;;20.48;13.95;;;;;19.20;100694.00;;;;5106452;28;20047;-75
2021/11/01 09:50:35;;;;;;;19.83;11.07;;;;;18.90;100690.00;;;;5108412;28;20040;-75
2021/11/01 09:53:14;;;;;;;33.42;12.50;;;;;18.90;100699.00;;;;5107694;28;20594;-76
2021/11/01 09:56:05;;;;;;;19.30;10.85;;;;;20.00;100643.00;;;;5088496;28;20048;-76
2021/11/01 10:01:25;;;;;;;22.25;9.60;;;;;25.80;100473.00;;;;5107346;28;20047;-78
2021/11/01 10:03:54;;;;;;;9.10;7.78;;;;;27.40;100450.00;;;;5107720;28;20071;-78
2021/11/01 10:06:28;;;;;;;26.90;8.50;;;;;28.10;100438.00;;;;5107470;28;20399;-77
2021/11/01 10:09:03;;;;;;;11.63;6.85;;;;;28.30;100423.00;;;;5107247;28;20062;-75
2021/11/01 10:11:39;;;;;;;11.55;6.97;;;;;28.30;100420.00;;;;5089896;28;20047;-76
2021/11/01 10:14:11;;;;;;;17.08;8.07;;;;;28.20;100440.00;;;;5107616;28;20035;-78
2021/11/01 10:19:37;;;;;;;12.10;7.63;;;;;28.80;100430.00;;;;5107431;28;20043;-78
2021/11/01 10:22:10;;;;;;;10.18;7.57;;;;;29.20;100452.00;;;;5107254;28;20040;-77
2021/11/01 10:24:41;;;;;;;18.02;8.10;;;;;29.70;100452.00;;;;5106967;28;20040;-77
2021/11/01 10:27:27;;;;;;;10.35;6.00;;;;;29.50;100446.00;;;;5106067;28;20046;-77
2021/11/01 10:30:00;;;;;;;14.95;7.90;;;;;29.60;100474.00;;;;5107329;28;20045;-78
2021/11/01 10:32:48;;;;;;;11.98;6.45;;;;;30.80;100492.00;;;;5088905;28;20051;-77
2021/11/01 10:35:32;;;;;;;12.73;5.97;;;;;31.40;100495.00;;;;5106336;28;20043;-77
2021/11/01 10:38:24;;;;;;;12.15;6.50;;;;;31.40;100501.00;;;;5106255;28;20067;-77
2021/11/01 10:41:42;;;;;;;12.65;6.32;;;;;31.00;100488.00;;;;5107782;28;20035;-77
2021/11/01 11:12:44;;;;;;;8.85;4.38;;;;;32.80;100443.00;;;;5107440;28;20058;-77
2021/11/01 11:15:10;;;;;;;15.52;5.25;;;;;32.80;100463.00;;;;5096870;28;20421;-77
2021/11/01 11:20:42;;;;;;;6.30;3.20;;;;;30.90;100476.00;;;;5110900;28;20080;-80
2021/11/01 11:28:52;;;;;;;8.75;3.38;;;;;29.80;100501.00;;;;5110534;28;20043;-77
2021/11/01 11:31:36;;;;;;;11.00;3.58;;;;;30.50;100503.00;;;;5110433;28;20046;-78
2021/11/01 11:50:41;;;;;;;5.00;2.13;;;;;27.80;100680.00;;;;5110088;28;20046;-78
2021/11/01 11:53:20;;;;;;;8.93;2.33;;;;;27.60;100668.00;;;;5091993;28;20147;-76
2021/11/01 11:56:10;;;;;;;6.88;2.08;;;;;27.70;100677.00;;;;5110228;28;20056;-76
2021/11/01 11:58:43;;;;;;;8.98;1.90;;;;;27.60;100665.00;;;;5109834;28;20043;-77
2021/11/01 12:01:37;;;;;;;5.47;1.50;;;;;27.80;100664.00;;;;5109825;28;20540;-77
2021/11/01 12:04:27;;;;;;;4.18;1.92;;;;;27.70;100666.00;;;;5110306;28;20729;-79
2021/11/01 12:07:03;;;;;;;9.18;1.50;;;;;27.90;100662.00;;;;5109724;28;20039;-77
2021/11/01 12:09:47;;;;;;;5.30;1.75;;;;;27.90;100671.00;;;;5110384;28;20051;-77
2021/11/01 12:17:28;;;;;;;6.18;2.25;;;;;27.90;100662.00;;;;5109498;28;20047;-77
2021/11/01 12:20:07;;;;;;;6.03;1.70;;;;;27.90;100655.00;;;;5109179;28;20043;-77
2021/11/01 12:22:42;;;;;;;2.10;1.58;;;;;28.00;100670.00;;;;5109154;28;20032;-76
2021/11/01 12:25:16;;;;;;;10.10;2.00;;;;;28.40;100663.00;;;;5109720;28;20607;-77
2021/11/01 12:28:04;;;;;;;7.43;1.67;;;;;28.60;100669.00;;;;5109418;28;20047;-77
2021/11/01 12:30:43;;;;;;;4.88;1.42;;;;;28.40;100657.00;;;;5109219;28;20071;-77
2021/11/01 12:33:14;;;;;;;13.43;2.30;;;;;28.80;100652.00;;;;5090945;28;20075;-77
2021/11/01 12:35:48;;;;;;;;;;;;;29.60;100655.00;;;;5109980;28;20043;-76
2021/11/01 12:38:34;;;;;;;5.22;2.00;;;;;29.10;100649.00;;;;5109587;28;20393;-77
2021/11/01 12:44:41;;;;;;;5.22;1.42;;;;;29.00;100651.00;;;;5109754;28;20040;-78
2021/11/01 12:57:52;;;;;;;9.93;2.00;;;;;29.00;100655.00;;;;5090721;28;20494;-77
2021/11/01 13:00:22;;;;;;;2.42;1.52;;;;;29.10;100652.00;;;;5108455;28;20044;-77
2021/11/01 13:02:53;;;;;;;3.83;1.35;;;;;29.80;100650.00;;;;5109338;28;20039;-76
2021/11/01 13:05:27;;;;;;;12.23;1.30;;;;;29.80;100642.00;;;;5108551;28;20040;-78
2021/11/01 13:08:04;;;;;;;4.10;1.40;;;;;29.90;100640.00;;;;5108451;28;20122;-77
2021/11/01 13:10:47;;;;;;;2.83;1.48;;;;;30.20;100642.00;;;;5108696;28;20039;-77
2021/11/01 13:19:07;;;;;;;4.43;1.23;;;;;30.20;100643.00;;;;5108669;28;20334;-77
2021/11/01 13:21:48;;;;;;;1.60;1.02;;;;;29.60;100643.00;;;;5108428;28;20050;-76
2021/11/01 13:24:20;;;;;;;2.25;1.13;;;;;29.80;100636.00;;;;5108553;28;20047;-78
2021/11/01 13:38:03;;;;;;;3.17;1.42;;;;;29.90;100628.00;;;;5108005;28;20062;-76
2021/11/01 13:40:36;;;;;;;8.88;3.08;;;;;30.40;100629.00;;;;5107557;28;20043;-76
2021/11/01 13:43:05;;;;;;;9.68;1.65;;;;;30.50;100618.00;;;;5107434;28;20506;-76
2021/11/01 13:45:35;;;;;;;2.72;1.48;;;;;30.50;100610.00;;;;5107901;28;20114;-78
2021/11/01 13:48:27;;;;;;;8.32;1.85;;;;;30.30;100624.00;;;;5108148;28;20093;-76
2021/11/01 13:51:13;;;;;;;29.52;6.53;;;;;30.10;100603.00;;;;5107839;28;20046;-76
2021/11/01 13:54:05;;;;;;;13.70;2.40;;;;;30.40;100602.00;;;;5107725;28;20081;-78
2021/11/01 13:56:51;;;;;;;4.10;1.65;;;;;29.60;100614.00;;;;5108352;28;20039;-76
2021/11/01 14:13:20;;;;;;;2.78;1.20;;;;;30.50;100588.00;;;;5107388;28;20051;-78
2021/11/01 14:18:57;;;;;;;4.05;1.25;;;;;30.40;100598.00;;;;5108037;28;20118;-74
2021/11/01 14:27:42;;;;;;;3.72;1.25;;;;;31.20;100571.00;;;;5052484;28;20061;-76
2021/11/01 14:33:37;;;;;;;4.75;1.15;;;;;31.60;100547.00;;;;5107126;28;20596;-77
2021/11/01 14:36:27;;;;;;;5.22;1.77;;;;;31.40;100552.00;;;;5106716;28;20123;-77
2021/11/01 14:56:42;;;;;;;10.32;2.25;;;;;31.90;100499.00;;;;5111885;28;20092;-77
2021/11/01 15:01:44;;;;;;;1.83;1.30;;;;;32.00;100485.00;;;;5113657;28;20058;-81
2021/11/01 16:18:37;;;;;;;2.63;0.80;;;;;32.60;100394.00;;;;5109810;28;20043;-77
2021/11/01 16:21:07;;;;;;;5.28;1.10;;;;;32.60;100407.00;;;;5109123;28;20158;-77
2021/11/01 16:23:37;;;;;;;3.07;0.83;;;;;32.40;100395.00;;;;5110002;28;20047;-78
2021/11/01 16:29:05;;;;;;;6.55;1.02;;;;;32.60;100392.00;;;;5110138;28;20599;-78
2021/11/01 16:31:55;;;;;;;1.05;0.85;;;;;32.60;100384.00;;;;5109558;28;20040;-78
2021/11/01 16:34:31;;;;;;;2.65;1.15;;;;;32.50;100386.00;;;;5109399;28;20039;-76
2021/11/01 16:39:47;;;;;;;3.90;1.10;;;;;32.90;100380.00;;;;5108773;28;20039;-79
2021/11/01 16:42:30;;;;;;;14.57;2.85;;;;;32.80;100383.00;;;;5109381;28;20576;-76
2021/11/01 16:45:09;;;;;;;3.33;1.45;;;;;33.00;100376.00;;;;5109428;28;20623;-77
2021/11/01 16:47:41;;;;;;;3.22;1.27;;;;;31.20;100417.00;;;;5108960;28;20043;-76
2021/11/01 16:50:13;;;;;;;3.17;1.15;;;;;30.70;100441.00;;;;5109067;28;20061;-77
2021/11/01 16:52:45;;;;;;;2.65;1.23;;;;;30.90;100386.00;;;;5109026;28;20114;-77
2021/11/01 16:57:57;;;;;;;5.80;1.55;;;;;32.50;100365.00;;;;5108946;28;20043;-78
2021/11/01 17:00:31;;;;;;;1.85;1.05;;;;;33.00;100368.00;;;;5108520;28;20060;-77
2021/11/01 17:24:54;;;;;;;6.80;1.40;;;;;33.70;100343.00;;;;5109123;28;20127;-77
2021/11/01 17:27:47;;;;;;;6.07;1.58;;;;;34.60;100335.00;;;;5107945;28;20122;-77
2021/11/01 17:36:18;;;;;;;1.20;1.10;;;;;34.10;100338.00;;;;5104627;28;19949;-78
2021/11/01 18:24:11;;;;;;;2.20;1.25;;;;;33.30;100318.00;;;;5099838;28;20051;-78
2021/11/01 18:52:09;;;;;;;15.20;3.10;;;;;31.70;100293.00;;;;5096767;28;20043;-79
2021/11/01 18:54:42;;;;;;;14.02;3.40;;;;;31.70;100291.00;;;;5098433;28;20424;-78
2021/11/01 18:57:14;;;;;;;12.35;3.20;;;;;31.70;100290.00;;;;5097753;28;20043;-81
2021/11/01 18:59:45;;;;;;;10.55;3.38;;;;;31.30;100296.00;;;;5096392;28;20039;-81
2021/11/01 19:02:40;;;;;;;11.60;3.60;;;;;31.30;100294.00;;;;5096630;28;20046;-79
2021/11/01 19:05:38;;;;;;;17.70;3.42;;;;;31.80;100293.00;;;;5096254;28;20034;-81
2021/11/01 19:08:57;;;;;;;16.35;2.95;;;;;33.00;100305.00;;;;5096753;28;20047;-79
2021/11/01 20:05:29;;;;;;;18.67;3.70;;;;;27.40;100360.00;;;;5110801;28;20043;-79
2021/11/01 20:11:16;;;;;;;20.60;3.90;;;;;27.20;100366.00;;;;5054473;28;20077;-81
2021/11/01 20:14:10;;;;;;;21.77;4.75;;;;;27.10;100370.00;;;;5110017;28;20050;-79
2021/11/01 21:27:40;;;;;;;16.85;2.90;;;;;24.60;100382.00;;;;5107976;28;20046;-78
2021/11/01 21:30:11;;;;;;;16.27;3.80;;;;;24.50;100401.00;;;;5108775;28;20031;-77
2021/11/01 21:32:41;;;;;;;32.38;4.95;;;;;24.40;100391.00;;;;5108763;28;20047;-77
2021/11/01 21:35:15;;;;;;;36.45;5.05;;;;;24.50;100404.00;;;;5108530;28;20524;-77
2021/11/01 21:37:46;;;;;;;45.33;5.07;;;;;24.40;100402.00;;;;5108168;28;20771;-77
2021/11/01 21:40:16;;;;;;;26.83;4.72;;;;;24.20;100409.00;;;;5107945;28;20130;-77
2021/11/01 21:42:45;;;;;;;21.55;4.20;;;;;24.50;100404.00;;;;5107580;28;20533;-79
2021/11/01 21:45:35;;;;;;;32.63;4.97;;;;;24.30;100397.00;;;;5089550;28;20221;-77
2021/11/01 21:48:05;;;;;;;29.65;4.05;;;;;24.10;100395.00;;;;5089473;28;20618;-77
2021/11/01 21:50:46;;;;;;;37.67;4.30;;;;;23.70;100376.00;;;;5108105;28;20055;-76
2021/11/01 21:53:18;;;;;;;46.85;5.90;;;;;23.40;100385.00;;;;5107612;28;20520;-79
2021/11/01 21:55:49;;;;;;;34.13;5.10;;;;;23.20;100388.00;;;;5089827;28;20075;-76
2021/11/01 22:17:44;;;;;;;31.58;4.90;;;;;22.90;100418.00;;;;5107190;28;20044;-76
2021/11/01 22:20:21;;;;;;;35.03;5.93;;;;;22.90;100433.00;;;;5106605;28;20039;-78
2021/11/01 22:23:03;;;;;;;39.13;5.72;;;;;23.00;100417.00;;;;5107385;28;20061;-78
2021/11/01 22:25:55;;;;;;;;;;;;;23.00;100423.00;;;;5107811;28;20043;-77
2021/11/01 22:55:54;;;;;;;29.13;5.93;;;;;21.20;100440.00;;;;5106489;28;20123;-77
2021/11/01 22:58:30;;;;;;;24.48;4.25;;;;;21.10;100447.00;;;;5089618;28;20047;-77
2021/11/01 23:01:08;;;;;;;20.77;4.60;;;;;21.20;100439.00;;;;5099258;28;20075;-77
2021/11/01 23:32:03;;;;;;;40.72;6.30;;;;;20.80;100460.00;;;;5109529;28;20531;-78
2021/11/01 23:34:32;;;;;;;36.88;6.25;;;;;20.80;100458.00;;;;5110897;28;20108;-78
2021/11/01 23:37:05;;;;;;;40.25;5.55;;;;;20.80;100442.00;;;;5110066;28;20074;-77
2021/11/01 23:39:35;;;;;;;35.07;5.00;;;;;20.70;100447.00;;;;5110722;28;20224;-78
2021/11/01 23:42:05;;;;;;;36.58;6.15;;;;;20.70;100459.00;;;;5110150;28;20090;-76
2021/11/01 23:44:35;;;;;;;29.80;5.40;;;;;20.70;100442.00;;;;5110231;28;20036;-76
2021/11/01 23:47:05;;;;;;;32.13;5.82;;;;;20.50;100449.00;;;;5100384;28;20494;-76
2021/11/01 23:49:34;;;;;;;33.80;5.90;;;;;20.40;100453.00;;;;5099121;28;20422;-78
2021/11/01 23:52:13;;;;;;;32.83;5.43;;;;;20.50;100449.00;;;;5098395;28;20134;-79
2021/11/01 23:54:43;;;;;;;33.67;5.70;;;;;20.70;100444.00;;;;5098303;28;20410;-77
2021/11/01 23:57:15;;;;;;;38.67;6.28;;;;;20.70;100440.00;;;;5083892;28;20052;-78
2021/11/01 23:59:46;;;;;;;26.48;5.10;;;;;20.60;100447.00;;;;5110200;28;20039;-78
